Time,TemperatureF,DewpointF,PressureIn,WindDirection,WindDirectionDegrees,WindSpeedMPH,WindSpeedGustMPH,Humidity,HourlyPrecipIn,Conditions,Clouds,dailyrainin,SolarRadiationWatts/m^2,SoftwareType,DateUTC
2013-03-15 00:00:00,19.9,6.3,29.69,WNW,292,11.5,11.5,55,0.00,CLR,,0.00,0.0,WeatherDisplay:10.37,2013-03-15 04:00:00,
2013-03-15 00:01:00,20.4,6.4,29.68,WNW,293,8.0,12.0,54,0.00,CL,CL,0.00,,WeatherDisplay:10.37,2013-03-15 04:01:00,
2013-03-15 00:05:00,19.8,6.2,29.69,WSW,245,15.0,15.0,55,0.00,CLR,,0.00,0.0,WeatherDisplay:10.37,2013-03-15 04:05:00,
2013-03-15 00:10:00,19.7,6.5,29.69,WNW,284,6.9,6.9,56,0.00,CLR,,0.00,0.0,WeatherDisplay:10.37,2013-03-15 04:10:00,
2013-03-15 00:15:00,19.7,6.1,29.69,West,268,15.0,15.0,55,0.00,CLR,,0.00,0.0,WeatherDisplay:10.37,2013-03-15 04:15:00,
2013-03-15 00:20:00,19.7,6.1,29.69,West,279,11.5,11.5,55,0.00,CLR,,0.00,0.0,WeatherDisplay:10.37,2013-03-15 04:20:00,
2013-03-15 00:25:00,19.7,6.5,29.69,WNW,286,10.4,10.4,56,0.00,CLR,,0.00,0.0,WeatherDisplay:10.37,2013-03-15 04:25:00,
2013-03-15 00:30:00,19.6,6.4,29.69,West,275,9.2,9.2,56,0.00,CLR,,0.00,0.0,WeatherDisplay:10.37,2013-03-15 04:30:00,
2013-03-15 00:35:00,19.5,6.3,29.69,WNW,290,16.1,16.1,56,0.00,CLR,,0.00,0.0,WeatherDisplay:10.37,2013-03-15 04:35:00,
2013-03-15 00:40:00,19.6,6.4,29.69,West,273,17.3,17.3,56,0.00,CLR,,0.00,0.0,WeatherDisplay:10.37,2013-03-15 04:40:00,
2013-03-15 00:45:00,19.6,6.8,29.69,West,281,11.5,11.5,57,0.00,CLR,,0.00,0.0,WeatherDisplay:10.37,2013-03-15 04:45:00,
2013-03-15 00:50:00,19.5,6.3,29.69,WNW,292,12.7,12.7,56,0.00,CLR,,0.00,0.0,WeatherDisplay:10.37,2013-03-15 04:50:00,
2013-03-15 00:55:00,19.5,6.7,29.69,WNW,291,11.5,11.5,57,0.00,CLR,,0.00,0.0,WeatherDisplay:10.37,2013-03-15 04:55:00,
2013-03-15 01:00:00,19.5,6.3,29.69,West,276,15.0,15.0,56,0.00,CLR,,0.00,0.0,WeatherDisplay:10.37,2013-03-15 05:00:00,
2013-03-15 01:01:00,19.9,6.3,29.69,WNW,293,6.0,12.0,55,0.00,CL,CL,0.00,,WeatherDisplay:10.37,2013-03-15 05:01:00,
2013-03-15 01:05:00,19.5,6.3,29.69,WNW,288,13.8,13.8,56,0.00,CLR,,0.00,0.0,WeatherDisplay:10.37,2013-03-15 05:05:00,
2013-03-15 01:10:00,19.5,6.3,29.69,West,275,12.7,12.7,56,0.00,CLR,,0.00,0.0,WeatherDisplay:10.37,2013-03-15 05:10:00,
2013-03-15 01:15:00,19.5,6.3,29.69,West,265,10.4,10.5,56,0.00,CLR,,0.00,0.0,WeatherDisplay:10.37,2013-03-15 05:15:00,
2013-03-15 01:20:00,19.7,6.5,29.69,NW,308,12.7,12.7,56,0.00,CLR,,0.00,0.0,WeatherDisplay:10.37,2013-03-15 05:20:00,
2013-03-15 01:25:00,19.6,6.4,29.69,WNW,299,20.7,20.7,56,0.00,CLR,,0.00,0.0,WeatherDisplay:10.37,2013-03-15 05:25:00,
2013-03-15 01:30:00,19.7,6.9,29.69,NW,309,12.7,12.7,57,0.00,CLR,,0.00,0.0,WeatherDisplay:10.37,2013-03-15 05:30:00,
2013-03-15 01:35:00,19.6,6.8,29.69,WNW,283,9.2,9.2,57,0.00,CLR,,0.00,0.0,WeatherDisplay:10.37,2013-03-15 05:35:00,
2013-03-15 01:40:00,19.6,6.8,29.69,WNW,291,11.5,11.5,57,0.00,CLR,,0.00,0.0,WeatherDisplay:10.37,2013-03-15 05:40:00,
2013-03-15 01:45:00,19.5,7.1,29.69,SSW,197,12.7,12.7,58,0.00,CLR,,0.00,0.0,WeatherDisplay:10.37,2013-03-15 05:45:00,
2013-03-15 01:50:00,19.5,6.7,29.69,West,280,10.4,10.4,57,0.00,CLR,,0.00,0.0,WeatherDisplay:10.37,2013-03-15 05:50:00,
2013-03-15 01:55:00,19.4,7.0,29.69,WNW,291,13.0,13.0,58,0.00,CLR,,0.00,0.0,WeatherDisplay:10.37,2013-03-15 05:55:00,
2013-03-15 02:00:00,19.4,7.0,29.69,WNW,290,12.7,12.7,58,0.00,CLR,,0.00,0.0,WeatherDisplay:10.37,2013-03-15 06:00:00,
2013-03-15 02:01:00,19.5,6.3,29.69,WNW,293,8.0,15.0,56,0.00,CL,CL,0.00,,WeatherDisplay:10.37,2013-03-15 06:01:00,
2013-03-15 02:05:00,19.4,7.4,29.69,WNW,292,18.4,18.4,59,0.00,CLR,,0.00,0.0,WeatherDisplay:10.37,2013-03-15 06:05:00,
2013-03-15 02:10:00,19.4,7.4,29.69,WSW,254,12.7,12.7,59,0.00,CLR,,0.00,0.0,WeatherDisplay:10.37,2013-03-15 06:10:00,
2013-03-15 02:15:00,19.3,7.7,29.69,SW,226,12.7,12.7,60,0.00,CLR,,0.00,0.0,WeatherDisplay:10.37,2013-03-15 06:15:00,
2013-03-15 02:20:00,19.3,7.7,29.69,WNW,291,11.5,11.5,60,0.00,CLR,,0.00,0.0,WeatherDisplay:10.37,2013-03-15 06:20:00,
2013-03-15 02:25:00,19.1,7.5,29.69,WNW,283,13.8,13.8,60,0.00,CLR,,0.00,0.0,WeatherDisplay:10.37,2013-03-15 06:25:00,
2013-03-15 02:30:00,19.1,7.8,29.69,West,281,12.0,12.0,61,0.00,CLR,,0.00,0.0,WeatherDisplay:10.37,2013-03-15 06:30:00,
2013-03-15 02:35:00,19.1,7.8,29.69,WNW,286,9.2,9.2,61,0.00,CLR,,0.00,0.0,WeatherDisplay:10.37,2013-03-15 06:35:00,
2013-03-15 02:40:00,19.0,8.1,29.69,WNW,287,17.3,17.3,62,0.00,CLR,,0.00,0.0,WeatherDisplay:10.37,2013-03-15 06:40:00,
2013-03-15 02:45:00,18.9,8.4,29.69,West,275,12.7,12.7,63,0.00,CLR,,0.00,0.0,WeatherDisplay:10.37,2013-03-15 06:45:00,
2013-03-15 02:50:00,18.9,8.4,29.69,WNW,287,17.3,17.3,63,0.00,CLR,,0.00,0.0,WeatherDisplay:10.37,2013-03-15 06:50:00,
2013-03-15 02:55:00,18.9,8.4,29.69,WNW,301,13.8,13.8,63,0.00,CLR,,0.00,0.0,WeatherDisplay:10.37,2013-03-15 06:55:00,
2013-03-15 03:00:00,18.8,8.3,29.69,NW,309,20.7,20.7,63,0.00,CLR,,0.00,0.0,WeatherDisplay:10.37,2013-03-15 07:00:00,
2013-03-15 03:01:00,19.4,7.0,29.69,West,270,7.0,13.0,58,0.00,CL,CL,0.00,,WeatherDisplay:10.37,2013-03-15 07:01:00,
2013-03-15 03:05:00,18.8,8.3,29.69,WNW,284,9.2,9.2,63,0.00,CLR,,0.00,0.0,WeatherDisplay:10.37,2013-03-15 07:05:00,
2013-03-15 03:10:00,18.7,8.5,29.69,West,268,12.7,12.7,64,0.00,CLR,,0.00,0.0,WeatherDisplay:10.37,2013-03-15 07:10:00,
2013-03-15 03:15:00,18.6,8.1,29.69,WNW,283,15.0,15.0,63,0.00,CLR,,0.00,0.0,WeatherDisplay:10.37,2013-03-15 07:15:00,
2013-03-15 03:20:00,18.6,8.4,29.69,West,270,6.9,6.9,64,0.00,CLR,,0.00,0.0,WeatherDisplay:10.37,2013-03-15 07:20:00,
2013-03-15 03:25:00,18.5,8.0,29.69,WNW,296,13.0,13.0,63,0.00,CLR,,0.00,0.0,WeatherDisplay:10.37,2013-03-15 07:25:00,
2013-03-15 03:30:00,18.5,8.0,29.69,WNW,284,4.6,4.6,63,0.00,CLR,,0.00,0.0,WeatherDisplay:10.37,2013-03-15 07:30:00,
2013-03-15 03:35:00,18.5,8.0,29.69,NW,311,10.4,10.4,63,0.00,CLR,,0.00,0.0,WeatherDisplay:10.37,2013-03-15 07:35:00,
2013-03-15 03:40:00,18.5,8.0,29.69,NW,315,12.7,12.7,63,0.00,CLR,,0.00,0.0,WeatherDisplay:10.37,2013-03-15 07:40:00,
2013-03-15 03:45:00,18.5,7.6,29.69,WNW,282,12.7,12.7,62,0.00,CLR,,0.00,0.0,WeatherDisplay:10.37,2013-03-15 07:45:00,
2013-03-15 03:51:00,18.6,7.7,29.69,WNW,286,13.8,13.8,62,0.00,CLR,,0.00,0.0,WeatherDisplay:10.37,2013-03-15 07:51:00,
2013-03-15 03:56:00,18.6,7.7,29.69,WNW,288,9.0,9.0,62,0.00,CLR,,0.00,0.0,WeatherDisplay:10.37,2013-03-15 07:56:00,
2013-03-15 04:01:00,18.5,7.6,29.69,WNW,284,11.5,11.5,62,0.00,CLR,,0.00,0.0,WeatherDisplay:10.37,2013-03-15 08:01:00,
2013-03-15 04:06:00,18.5,7.6,29.69,WNW,296,11.5,11.5,62,0.00,CLR,,0.00,0.0,WeatherDisplay:10.37,2013-03-15 08:06:00,
2013-03-15 04:11:00,18.5,8.0,29.69,West,275,16.1,16.1,63,0.00,CLR,,0.00,0.0,WeatherDisplay:10.37,2013-03-15 08:11:00,
2013-03-15 04:16:00,18.5,7.6,29.69,WNW,289,3.5,3.5,62,0.00,CLR,,0.00,0.0,WeatherDisplay:10.37,2013-03-15 08:16:00,
2013-03-15 04:21:00,18.4,7.2,29.69,WNW,284,11.5,11.5,61,0.00,CLR,,0.00,0.0,WeatherDisplay:10.37,2013-03-15 08:21:00,
2013-03-15 04:26:00,18.3,7.1,29.69,West,273,5.8,5.8,61,0.00,CLR,,0.00,0.0,WeatherDisplay:10.37,2013-03-15 08:26:00,
2013-03-15 04:31:00,18.3,7.4,29.69,West,262,5.8,5.8,62,0.00,CLR,,0.00,0.0,WeatherDisplay:10.37,2013-03-15 08:31:00,
2013-03-15 04:36:00,18.3,7.4,29.69,NW,313,11.5,11.5,62,0.00,CLR,,0.00,0.0,WeatherDisplay:10.37,2013-03-15 08:36:00,
2013-03-15 04:41:00,18.4,7.2,29.69,WNW,290,9.2,9.2,61,0.00,CLR,,0.00,0.0,WeatherDisplay:10.37,2013-03-15 08:41:00,
2013-03-15 04:46:00,18.4,6.8,29.69,WNW,289,12.7,12.7,60,0.00,CLR,,0.00,0.0,WeatherDisplay:10.37,2013-03-15 08:46:00,
2013-03-15 04:51:00,18.5,6.9,29.69,West,272,5.8,5.8,60,0.00,CLR,,0.00,0.0,WeatherDisplay:10.37,2013-03-15 08:51:00,
2013-03-15 04:56:00,18.4,6.4,29.69,West,274,9.2,9.2,59,0.00,CLR,,0.00,0.0,WeatherDisplay:10.37,2013-03-15 08:56:00,
2013-03-15 05:01:00,18.2,6.3,29.69,West,273,4.6,4.6,59,0.00,CLR,,0.00,0.0,WeatherDisplay:10.37,2013-03-15 09:01:00,
2013-03-15 05:06:00,18.1,6.5,29.69,West,273,2.3,2.3,60,0.00,CLR,,0.00,0.0,WeatherDisplay:10.37,2013-03-15 09:06:00,
2013-03-15 05:11:00,18.0,6.1,29.69,WNW,285,3.0,3.0,59,0.00,CLR,,0.00,0.0,WeatherDisplay:10.37,2013-03-15 09:11:00,
2013-03-15 05:16:00,18.0,6.4,29.69,NW,306,10.4,10.4,60,0.00,CLR,,0.00,0.0,WeatherDisplay:10.37,2013-03-15 09:16:00,
2013-03-15 05:21:00,18.2,7.0,29.69,WNW,300,10.4,10.4,61,0.00,CLR,,0.00,0.0,WeatherDisplay:10.37,2013-03-15 09:21:00,
2013-03-15 05:26:00,18.3,7.1,29.69,NW,311,6.9,6.9,61,0.00,CLR,,0.00,0.0,WeatherDisplay:10.37,2013-03-15 09:26:00,
2013-03-15 05:31:00,18.3,6.7,29.69,WNW,301,6.0,6.0,60,0.00,CLR,,0.00,0.0,WeatherDisplay:10.37,2013-03-15 09:31:00,
2013-03-15 05:36:00,18.3,6.4,29.70,West,271,13.8,13.8,59,0.00,CLR,,0.00,0.0,WeatherDisplay:10.37,2013-03-15 09:36:00,
2013-03-15 05:42:00,18.3,6.0,29.70,WNW,286,5.0,5.0,58,0.00,CLR,,0.00,0.0,WeatherDisplay:10.37,2013-03-15 09:42:00,
2013-03-15 05:47:00,18.2,6.3,29.70,WNW,286,6.0,6.0,59,0.00,CLR,,0.00,0.0,WeatherDisplay:10.37,2013-03-15 09:47:00,
2013-03-15 05:52:00,18.3,6.4,29.69,WNW,284,12.7,12.7,59,0.00,CLR,,0.00,0.0,WeatherDisplay:10.37,2013-03-15 09:52:00,
2013-03-15 05:57:00,18.3,6.4,29.69,WNW,300,9.2,9.2,59,0.00,CLR,,0.00,0.0,WeatherDisplay:10.37,2013-03-15 09:57:00,
2013-03-15 06:01:00,18.3,6.3,29.69,WNW,293,7.0,12.0,59,0.00,CL,CL,0.00,,WeatherDisplay:10.37,2013-03-15 10:01:00,
2013-03-15 06:02:00,18.2,5.9,29.69,WNW,302,4.6,4.6,58,0.00,CLR,,0.00,0.0,WeatherDisplay:10.37,2013-03-15 10:02:00,
2013-03-15 06:07:00,18.1,5.8,29.70,WNW,302,3.5,3.5,58,0.00,CLR,,0.00,0.0,WeatherDisplay:10.37,2013-03-15 10:07:00,
2013-03-15 06:12:00,18.0,5.7,29.70,WNW,302,0.0,0.0,58,0.00,CLR,,0.00,0.0,WeatherDisplay:10.37,2013-03-15 10:12:00,
2013-03-15 06:17:00,18.0,6.1,29.70,WNW,302,0.0,0.0,59,0.00,CLR,,0.00,0.0,WeatherDisplay:10.37,2013-03-15 10:17:00,
2013-03-15 06:22:00,17.8,6.2,29.71,WNW,302,0.0,0.0,60,0.00,CLR,,0.00,0.0,WeatherDisplay:10.37,2013-03-15 10:22:00,
2013-03-15 06:27:00,17.6,6.1,29.71,WNW,302,0.0,0.0,60,0.00,CLR,,0.00,0.0,WeatherDisplay:10.37,2013-03-15 10:27:00,
2013-03-15 06:32:00,17.4,6.2,29.71,WNW,302,0.0,0.0,61,0.00,CLR,,0.00,0.0,WeatherDisplay:10.37,2013-03-15 10:32:00,
2013-03-15 06:37:00,17.2,6.4,29.71,WNW,302,0.0,0.0,62,0.00,CLR,,0.00,0.0,WeatherDisplay:10.37,2013-03-15 10:37:00,
2013-03-15 06:42:00,16.9,6.5,29.71,WNW,302,0.0,0.0,63,0.00,CLR,,0.00,0.0,WeatherDisplay:10.37,2013-03-15 10:42:00,
2013-03-15 06:47:00,16.7,6.6,29.71,WNW,302,0.0,0.0,64,0.00,CLR,,0.00,0.0,WeatherDisplay:10.37,2013-03-15 10:47:00,
2013-03-15 06:52:00,16.4,7.0,29.71,WNW,302,0.0,0.0,66,0.00,CLR,,0.00,5.0,WeatherDisplay:10.37,2013-03-15 10:52:00,
2013-03-15 06:57:00,16.2,6.8,29.71,WNW,302,0.0,0.0,66,0.00,CLR,,0.00,7.0,WeatherDisplay:10.37,2013-03-15 10:57:00,
2013-03-15 07:01:00,18.2,5.9,29.69,WNW,293,3.0,7.0,58,0.00,CL,CL,0.00,,WeatherDisplay:10.37,2013-03-15 11:01:00,
2013-03-15 07:02:00,16.0,6.6,29.71,WNW,302,0.0,0.0,66,0.00,CLR,,0.00,12.0,WeatherDisplay:10.37,2013-03-15 11:02:00,
2013-03-15 07:07:00,15.8,6.4,29.71,WNW,302,0.0,0.0,66,0.00,CLR,,0.00,14.0,WeatherDisplay:10.37,2013-03-15 11:07:00,
2013-03-15 07:12:00,15.6,6.6,29.71,WNW,302,1.0,0.0,67,0.00,SCT,,0.00,19.0,WeatherDisplay:10.37,2013-03-15 11:12:00,
2013-03-15 07:17:00,15.5,6.8,29.71,WNW,302,0.0,0.0,68,0.00,SCT,,0.00,23.0,WeatherDisplay:10.37,2013-03-15 11:17:00,
2013-03-15 07:22:00,15.4,7.0,29.71,WNW,302,0.0,0.0,69,0.00,SCT,,0.00,28.0,WeatherDisplay:10.37,2013-03-15 11:22:00,
2013-03-15 07:27:00,15.3,7.6,29.71,WNW,302,1.2,0.0,71,0.00,BKN,,0.00,30.0,WeatherDisplay:10.37,2013-03-15 11:27:00,
2013-03-15 07:32:00,15.3,7.6,29.71,WNW,302,0.0,0.0,71,0.00,BKN,,0.00,33.0,WeatherDisplay:10.37,2013-03-15 11:32:00,
2013-03-15 07:37:00,15.4,8.0,29.71,WNW,302,0.0,0.0,72,0.00,BKN,,0.00,40.0,WeatherDisplay:10.37,2013-03-15 11:37:00,
2013-03-15 07:42:00,15.4,8.0,29.71,WNW,302,0.0,0.0,72,0.00,BKN,,0.00,40.0,WeatherDisplay:10.37,2013-03-15 11:42:00,
2013-03-15 07:47:00,15.8,8.4,29.71,WNW,302,0.0,0.0,72,0.00,CLR,,0.00,153.0,WeatherDisplay:10.37,2013-03-15 11:47:00,
2013-03-15 07:52:00,16.7,8.6,29.71,WNW,302,0.0,0.0,70,0.00,CLR,,0.00,141.0,WeatherDisplay:10.37,2013-03-15 11:52:00,
2013-03-15 07:57:00,17.1,8.3,29.71,WNW,302,0.0,0.0,68,0.00,SCT,,0.00,74.0,WeatherDisplay:10.37,2013-03-15 11:57:00,
2013-03-15 08:01:00,16.1,6.7,29.71,WNW,293,0.0,0.0,66,0.00,CL,CL,0.00,,WeatherDisplay:10.37,2013-03-15 12:01:00,
2013-03-15 08:02:00,17.5,7.7,29.71,WNW,302,0.0,0.0,65,0.00,SCT,,0.00,83.0,WeatherDisplay:10.37,2013-03-15 12:02:00,
2013-03-15 08:07:00,17.8,7.3,29.71,WNW,302,2.3,2.3,63,0.00,SCT,,0.00,148.0,WeatherDisplay:10.37,2013-03-15 12:07:00,
2013-03-15 08:12:00,18.5,7.6,29.71,WNW,302,2.3,0.0,62,0.00,CLR,,0.00,255.0,WeatherDisplay:10.37,2013-03-15 12:12:00,
2013-03-15 08:17:00,19.1,7.8,29.71,WNW,302,1.2,1.2,61,0.00,CLR,,0.00,272.0,WeatherDisplay:10.37,2013-03-15 12:17:00,
2013-03-15 08:23:00,19.4,8.1,29.71,WNW,302,0.0,0.0,61,0.00,CLR,,0.00,294.0,WeatherDisplay:10.37,2013-03-15 12:23:00,
2013-03-15 08:28:00,19.7,8.0,29.71,WNW,302,3.5,3.5,60,0.00,CLR,,0.00,308.0,WeatherDisplay:10.37,2013-03-15 12:28:00,
2013-03-15 08:33:00,19.8,7.8,29.71,WNW,302,2.3,2.3,59,0.00,CLR,,0.00,322.0,WeatherDisplay:10.37,2013-03-15 12:33:00,
2013-03-15 08:38:00,19.8,8.1,29.71,WNW,302,1.2,1.2,60,0.00,CLR,,0.00,345.0,WeatherDisplay:10.37,2013-03-15 12:38:00,
2013-03-15 08:43:00,19.9,7.5,29.71,WNW,302,1.2,1.2,58,0.00,CLR,,0.00,380.0,WeatherDisplay:10.37,2013-03-15 12:43:00,
2013-03-15 08:48:00,20.3,7.9,29.71,WNW,302,3.5,3.5,58,0.00,CLR,,0.00,376.0,WeatherDisplay:10.37,2013-03-15 12:48:00,
2013-03-15 08:53:00,20.5,7.7,29.71,WNW,302,3.5,3.5,57,0.00,CLR,,0.00,425.0,WeatherDisplay:10.37,2013-03-15 12:53:00,
2013-03-15 08:58:00,20.8,7.6,29.71,WNW,302,4.6,4.6,56,0.00,CLR,,0.00,496.0,WeatherDisplay:10.37,2013-03-15 12:58:00,
2013-03-15 09:01:00,17.2,8.1,29.71,WNW,293,0.0,1.0,67,0.00,CL,CL,0.00,,WeatherDisplay:10.37,2013-03-15 13:01:00,
2013-03-15 09:03:00,21.0,8.1,29.71,WNW,302,5.0,5.0,57,0.00,CLR,,0.00,536.0,WeatherDisplay:10.37,2013-03-15 13:03:00,
2013-03-15 09:08:00,21.2,7.5,29.71,WNW,302,2.3,2.3,55,0.00,CLR,,0.00,373.0,WeatherDisplay:10.37,2013-03-15 13:08:00,
2013-03-15 09:13:00,21.2,7.1,29.71,WNW,302,1.2,1.2,54,0.00,CLR,,0.00,287.0,WeatherDisplay:10.37,2013-03-15 13:13:00,
2013-03-15 09:18:00,21.4,7.3,29.71,WNW,302,3.5,3.5,54,0.00,CLR,,0.00,306.0,WeatherDisplay:10.37,2013-03-15 13:18:00,
2013-03-15 09:23:00,21.7,8.4,29.70,NE,46,3.5,3.5,56,0.00,CLR,,0.00,350.0,WeatherDisplay:10.37,2013-03-15 13:23:00,
2013-03-15 09:28:00,21.7,7.6,29.70,NE,46,1.2,0.0,54,0.00,FEW,,0.00,367.0,WeatherDisplay:10.37,2013-03-15 13:28:00,
2013-03-15 09:33:00,22.3,8.2,29.70,NE,46,1.0,1.0,54,0.00,CLR,,0.00,439.0,WeatherDisplay:10.37,2013-03-15 13:33:00,
2013-03-15 09:38:00,22.5,7.9,29.71,ESE,115,3.5,3.5,53,0.00,CLR,,0.00,390.0,WeatherDisplay:10.37,2013-03-15 13:38:00,
2013-03-15 09:43:00,22.8,8.6,29.71,ESE,113,3.5,3.5,54,0.00,CLR,,0.00,555.0,WeatherDisplay:10.37,2013-03-15 13:43:00,
2013-03-15 09:48:00,22.9,7.9,29.71,East,83,1.2,1.2,52,0.00,CLR,,0.00,587.0,WeatherDisplay:10.37,2013-03-15 13:48:00,
2013-03-15 09:53:00,23.6,8.1,29.70,WNW,300,4.0,4.0,51,0.00,CLR,,0.00,594.0,WeatherDisplay:10.37,2013-03-15 13:53:00,
2013-03-15 09:58:00,23.8,8.3,29.70,WNW,299,1.2,1.2,51,0.00,CLR,,0.00,592.0,WeatherDisplay:10.37,2013-03-15 13:58:00,
2013-03-15 10:01:00,20.8,7.5,29.71,WNW,293,2.0,5.0,56,0.00,CL,CL,0.00,,WeatherDisplay:10.37,2013-03-15 14:01:00,
2013-03-15 10:03:00,23.8,8.7,29.70,North,355,3.5,3.5,52,0.00,CLR,,0.00,490.0,WeatherDisplay:10.37,2013-03-15 14:03:00,
2013-03-15 10:08:00,24.1,8.6,29.70,East,83,2.3,2.3,51,0.00,CLR,,0.00,494.0,WeatherDisplay:10.37,2013-03-15 14:08:00,
2013-03-15 10:13:00,23.8,7.8,29.70,North,360,3.5,3.5,50,0.00,CLR,,0.00,390.0,WeatherDisplay:10.37,2013-03-15 14:13:00,
2013-03-15 10:18:00,23.4,7.9,29.70,North,11,3.5,3.5,51,0.00,SCT,,0.00,366.0,WeatherDisplay:10.37,2013-03-15 14:18:00,
2013-03-15 10:23:00,23.4,8.8,29.70,NNE,14,3.5,3.5,53,0.00,SCT,,0.00,360.0,WeatherDisplay:10.37,2013-03-15 14:23:00,
2013-03-15 10:28:00,23.6,8.1,29.70,WNW,288,3.5,3.5,51,0.00,SCT,,0.00,338.0,WeatherDisplay:10.37,2013-03-15 14:28:00,
2013-03-15 10:33:00,23.8,7.8,29.70,WNW,288,3.5,3.5,50,0.00,SCT,,0.00,325.0,WeatherDisplay:10.37,2013-03-15 14:33:00,
2013-03-15 10:38:00,24.1,8.6,29.69,WNW,288,2.3,0.0,51,0.00,SCT,,0.00,308.0,WeatherDisplay:10.37,2013-03-15 14:38:00,
2013-03-15 10:43:00,24.3,9.6,29.69,WNW,288,2.3,0.0,53,0.00,SCT,,0.00,322.0,WeatherDisplay:10.37,2013-03-15 14:43:00,
2013-03-15 10:48:00,24.2,8.7,29.69,ESE,118,2.3,0.0,51,0.00,SCT,,0.00,355.0,WeatherDisplay:10.37,2013-03-15 14:48:00,
2013-03-15 10:53:00,24.6,9.5,29.68,NW,320,3.5,3.5,52,0.00,SCT,,0.00,353.0,WeatherDisplay:10.37,2013-03-15 14:53:00,
2013-03-15 10:58:00,24.7,9.5,29.68,NW,321,3.5,3.5,52,0.00,SCT,,0.00,345.0,WeatherDisplay:10.37,2013-03-15 14:58:00,
2013-03-15 11:01:00,23.8,8.7,29.70,WNW,293,0.0,2.0,52,0.00,CL,CL,0.00,,WeatherDisplay:10.37,2013-03-15 15:01:00,
2013-03-15 11:03:00,24.6,9.5,29.68,NW,326,0.0,0.0,52,0.00,SCT,,0.00,376.0,WeatherDisplay:10.37,2013-03-15 15:03:00,
2013-03-15 12:01:00,24.6,9.5,29.68,NW,315,2.0,3.0,52,0.00,CL,CL,0.00,,WeatherDisplay:10.37,2013-03-15 16:01:00,